sensor_id;sensor_type;location;lat;lon;timestamp;pressure;altitude;pressure_sealevel;temperature;humidity
39275;BME280;24980;48.874;2.332;2022-10-31T00:01:40;101542.33;;;23.25;50.13
39275;BME280;24980;48.874;2.332;2022-10-31T00:04:10;101544.20;;;23.25;50.13
39275;BME280;24980;48.874;2.332;2022-10-31T00:06:40;101540.92;;;23.24;50.13
39275;BME280;24980;48.874;2.332;2022-10-31T00:09:10;101544.56;;;23.24;50.13
39275;BME280;24980;48.874;2.332;2022-10-31T00:11:40;101546.42;;;23.24;50.12
39275;BME280;24980;48.874;2.332;2022-10-31T00:14:10;101552.85;;;23.23;50.13
39275;BME280;24980;48.874;2.332;2022-10-31T00:16:40;101557.67;;;23.23;50.13
39275;BME280;24980;48.874;2.332;2022-10-31T00:19:10;101559.36;;;23.23;50.13
39275;BME280;24980;48.874;2.332;2022-10-31T00:21:40;101552.94;;;23.23;50.13
39275;BME280;24980;48.874;2.332;2022-10-31T00:24:10;101552.84;;;23.22;50.13
39275;BME280;24980;48.874;2.332;2022-10-31T00:26:41;101544.90;;;23.23;50.13
39275;BME280;24980;48.874;2.332;2022-10-31T00:29:11;101542.30;;;23.21;50.12
39275;BME280;24980;48.874;2.332;2022-10-31T00:31:41;101538.84;;;23.21;50.12
39275;BME280;24980;48.874;2.332;2022-10-31T00:34:11;101539.43;;;23.21;50.12
39275;BME280;24980;48.874;2.332;2022-10-31T00:36:41;101540.87;;;23.20;50.11
39275;BME280;24980;48.874;2.332;2022-10-31T00:39:11;101544.67;;;23.20;50.12
39275;BME280;24980;48.874;2.332;2022-10-31T00:41:44;101551.18;;;23.19;50.12
39275;BME280;24980;48.874;2.332;2022-10-31T00:44:12;101547.62;;;23.19;50.12
39275;BME280;24980;48.874;2.332;2022-10-31T00:46:42;101546.95;;;23.18;50.12
39275;BME280;24980;48.874;2.332;2022-10-31T00:49:12;101543.34;;;23.18;50.12
39275;BME280;24980;48.874;2.332;2022-10-31T00:51:42;101542.41;;;23.17;50.12
39275;BME280;24980;48.874;2.332;2022-10-31T00:54:12;101538.69;;;23.17;50.12
39275;BME280;24980;48.874;2.332;2022-10-31T00:56:43;101535.81;;;23.17;50.13
39275;BME280;24980;48.874;2.332;2022-10-31T00:59:13;101539.20;;;23.17;50.13
39275;BME280;24980;48.874;2.332;2022-10-31T01:01:43;101539.88;;;23.16;50.12
39275;BME280;24980;48.874;2.332;2022-10-31T01:04:13;101541.14;;;23.16;50.13
39275;BME280;24980;48.874;2.332;2022-10-31T01:06:43;101537.00;;;23.16;50.12
39275;BME280;24980;48.874;2.332;2022-10-31T01:09:13;101531.24;;;23.15;50.12
39275;BME280;24980;48.874;2.332;2022-10-31T01:11:43;101528.53;;;23.15;50.12
39275;BME280;24980;48.874;2.332;2022-10-31T01:14:13;101515.62;;;23.15;50.12
39275;BME280;24980;48.874;2.332;2022-10-31T01:16:43;101508.61;;;23.14;50.11
39275;BME280;24980;48.874;2.332;2022-10-31T01:19:13;101505.23;;;23.14;50.12
39275;BME280;24980;48.874;2.332;2022-10-31T01:21:43;101504.97;;;23.14;50.12
39275;BME280;24980;48.874;2.332;2022-10-31T01:24:13;101501.42;;;23.14;50.12
39275;BME280;24980;48.874;2.332;2022-10-31T01:26:43;101499.56;;;23.13;50.14
39275;BME280;24980;48.874;2.332;2022-10-31T01:29:16;101493.81;;;23.13;50.12
39275;BME280;24980;48.874;2.332;2022-10-31T01:31:44;101493.72;;;23.12;50.11
39275;BME280;24980;48.874;2.332;2022-10-31T01:34:20;101494.14;;;23.12;50.11
39275;BME280;24980;48.874;2.332;2022-10-31T01:36:45;101490.59;;;23.12;50.11
39275;BME280;24980;48.874;2.332;2022-10-31T01:39:15;101489.19;;;23.11;50.12
39275;BME280;24980;48.874;2.332;2022-10-31T01:41:48;101490.38;;;23.11;50.12
39275;BME280;24980;48.874;2.332;2022-10-31T01:46:58;101485.05;;;23.10;50.12
39275;BME280;24980;48.874;2.332;2022-10-31T01:49:23;101480.31;;;23.10;50.12
39275;BME280;24980;48.874;2.332;2022-10-31T01:51:50;101471.68;;;23.09;50.13
39275;BME280;24980;48.874;2.332;2022-10-31T01:54:21;101467.11;;;23.09;50.14
39275;BME280;24980;48.874;2.332;2022-10-31T01:56:50;101467.62;;;23.09;50.14
39275;BME280;24980;48.874;2.332;2022-10-31T01:59:20;101467.53;;;23.09;50.16
39275;BME280;24980;48.874;2.332;2022-10-31T02:01:50;101469.94;;;23.08;50.16
39275;BME280;24980;48.874;2.332;2022-10-31T02:04:19;101475.09;;;23.08;50.16
39275;BME280;24980;48.874;2.332;2022-10-31T02:07:04;101476.19;;;23.08;50.16
39275;BME280;24980;48.874;2.332;2022-10-31T02:09:20;101476.62;;;23.08;50.17
39275;BME280;24980;48.874;2.332;2022-10-31T02:11:56;101472.39;;;23.08;50.17
39275;BME280;24980;48.874;2.332;2022-10-31T02:14:22;101467.14;;;23.07;50.17
39275;BME280;24980;48.874;2.332;2022-10-31T02:17:00;101469.42;;;23.07;50.18
39275;BME280;24980;48.874;2.332;2022-10-31T02:19:31;101467.65;;;23.07;50.18
39275;BME280;24980;48.874;2.332;2022-10-31T02:24:40;101451.67;;;23.07;50.19
39275;BME280;24980;48.874;2.332;2022-10-31T02:27:03;101445.24;;;23.06;50.19
39275;BME280;24980;48.874;2.332;2022-10-31T02:34:37;101449.16;;;23.05;50.20
39275;BME280;24980;48.874;2.332;2022-10-31T02:37:05;101448.66;;;23.05;50.20
39275;BME280;24980;48.874;2.332;2022-10-31T02:39:42;101444.43;;;23.05;50.20
39275;BME280;24980;48.874;2.332;2022-10-31T02:42:24;101443.58;;;23.05;50.20
39275;BME280;24980;48.874;2.332;2022-10-31T02:44:42;101438.34;;;23.04;50.21
39275;BME280;24980;48.874;2.332;2022-10-31T02:47:13;101431.83;;;23.04;50.21
39275;BME280;24980;48.874;2.332;2022-10-31T02:49:34;101430.48;;;23.04;50.22
39275;BME280;24980;48.874;2.332;2022-10-31T02:52:00;101427.69;;;23.04;50.22
39275;BME280;24980;48.874;2.332;2022-10-31T02:54:30;101428.28;;;23.03;50.23
39275;BME280;24980;48.874;2.332;2022-10-31T02:57:05;101427.94;;;23.03;50.23
39275;BME280;24980;48.874;2.332;2022-10-31T02:59:33;101423.20;;;23.02;50.23
39275;BME280;24980;48.874;2.332;2022-10-31T03:02:15;101429.88;;;23.03;50.23
39275;BME280;24980;48.874;2.332;2022-10-31T03:04:45;101425.09;;;23.01;50.24
39275;BME280;24980;48.874;2.332;2022-10-31T03:09:44;101425.43;;;23.01;50.24
39275;BME280;24980;48.874;2.332;2022-10-31T03:12:30;101416.72;;;23.01;50.24
39275;BME280;24980;48.874;2.332;2022-10-31T03:14:42;101418.41;;;23.00;50.24
39275;BME280;24980;48.874;2.332;2022-10-31T03:17:10;101420.52;;;23.00;50.25
39275;BME280;24980;48.874;2.332;2022-10-31T03:19:41;101419.59;;;22.99;50.25
39275;BME280;24980;48.874;2.332;2022-10-31T03:22:24;101416.80;;;22.99;50.26
39275;BME280;24980;48.874;2.332;2022-10-31T03:24:38;101416.97;;;22.99;50.26
39275;BME280;24980;48.874;2.332;2022-10-31T03:27:11;101416.41;;;22.99;50.27
39275;BME280;24980;48.874;2.332;2022-10-31T03:29:40;101410.41;;;22.98;50.27
39275;BME280;24980;48.874;2.332;2022-10-31T03:32:17;101407.45;;;22.97;50.27
39275;BME280;24980;48.874;2.332;2022-10-31T03:34:41;101406.35;;;22.97;50.27
39275;BME280;24980;48.874;2.332;2022-10-31T03:37:14;101399.76;;;22.97;50.28
39275;BME280;24980;48.874;2.332;2022-10-31T03:39:41;101398.58;;;22.96;50.29
39275;BME280;24980;48.874;2.332;2022-10-31T03:42:14;101394.09;;;22.97;50.29
39275;BME280;24980;48.874;2.332;2022-10-31T03:44:44;101390.12;;;22.96;50.29
39275;BME280;24980;48.874;2.332;2022-10-31T03:47:18;101386.40;;;22.96;50.30
39275;BME280;24980;48.874;2.332;2022-10-31T03:49:43;101379.55;;;22.96;50.30
39275;BME280;24980;48.874;2.332;2022-10-31T03:54:45;101384.41;;;22.95;50.31
39275;BME280;24980;48.874;2.332;2022-10-31T03:57:29;101376.55;;;22.95;50.32
39275;BME280;24980;48.874;2.332;2022-10-31T03:59:51;101372.73;;;22.94;50.32
39275;BME280;24980;48.874;2.332;2022-10-31T04:02:18;101369.86;;;22.94;50.32
39275;BME280;24980;48.874;2.332;2022-10-31T04:04:47;101372.23;;;22.93;50.32
39275;BME280;24980;48.874;2.332;2022-10-31T04:07:18;101371.30;;;22.93;50.33
39275;BME280;24980;48.874;2.332;2022-10-31T04:09:48;101369.09;;;22.93;50.33
39275;BME280;24980;48.874;2.332;2022-10-31T04:12:17;101365.08;;;22.92;50.34
39275;BME280;24980;48.874;2.332;2022-10-31T04:14:50;101363.64;;;22.92;50.35
39275;BME280;24980;48.874;2.332;2022-10-31T04:17:23;101363.12;;;22.92;50.35
39275;BME280;24980;48.874;2.332;2022-10-31T04:19:48;101360.42;;;22.92;50.36
39275;BME280;24980;48.874;2.332;2022-10-31T04:22:18;101365.50;;;22.92;50.36
39275;BME280;24980;48.874;2.332;2022-10-31T04:24:48;101365.83;;;22.91;50.39
39275;BME280;24980;48.874;2.332;2022-10-31T04:27:18;101363.80;;;22.91;50.45
39275;BME280;24980;48.874;2.332;2022-10-31T04:29:48;101363.35;;;22.93;50.52
39275;BME280;24980;48.874;2.332;2022-10-31T04:32:18;101364.82;;;22.92;50.55
39275;BME280;24980;48.874;2.332;2022-10-31T04:34:50;101363.69;;;22.93;50.56
39275;BME280;24980;48.874;2.332;2022-10-31T04:37:19;101367.75;;;22.93;50.56
39275;BME280;24980;48.874;2.332;2022-10-31T04:39:49;101365.33;;;22.92;50.55
39275;BME280;24980;48.874;2.332;2022-10-31T04:42:19;101358.91;;;22.91;50.54
39275;BME280;24980;48.874;2.332;2022-10-31T04:44:49;101353.92;;;22.91;50.53
39275;BME280;24980;48.874;2.332;2022-10-31T04:49:50;101350.62;;;22.90;50.49
39275;BME280;24980;48.874;2.332;2022-10-31T04:52:20;101344.45;;;22.90;50.49
39275;BME280;24980;48.874;2.332;2022-10-31T04:54:50;101334.00;;;22.89;50.48
39275;BME280;24980;48.874;2.332;2022-10-31T04:57:20;101330.70;;;22.89;50.47
39275;BME280;24980;48.874;2.332;2022-10-31T04:59:50;101324.88;;;22.88;50.46
39275;BME280;24980;48.874;2.332;2022-10-31T05:02:21;101323.94;;;22.88;50.45
39275;BME280;24980;48.874;2.332;2022-10-31T05:04:51;101317.17;;;22.87;50.45
39275;BME280;24980;48.874;2.332;2022-10-31T05:07:21;101322.33;;;22.87;50.43
39275;BME280;24980;48.874;2.332;2022-10-31T05:09:51;101319.38;;;22.86;50.44
39275;BME280;24980;48.874;2.332;2022-10-31T05:12:21;101320.08;;;22.86;50.43
39275;BME280;24980;48.874;2.332;2022-10-31T05:14:51;101324.98;;;22.85;50.43
39275;BME280;24980;48.874;2.332;2022-10-31T05:17:21;101318.31;;;22.86;50.43
39275;BME280;24980;48.874;2.332;2022-10-31T05:19:52;101313.16;;;22.85;50.42
39275;BME280;24980;48.874;2.332;2022-10-31T05:24:53;101302.76;;;22.84;50.43
39275;BME280;24980;48.874;2.332;2022-10-31T05:27:23;101295.74;;;22.84;50.43
39275;BME280;24980;48.874;2.332;2022-10-31T05:29:53;101286.98;;;22.83;50.43
39275;BME280;24980;48.874;2.332;2022-10-31T05:32:23;101284.50;;;22.83;50.43
39275;BME280;24980;48.874;2.332;2022-10-31T05:34:53;101281.66;;;22.82;50.43
39275;BME280;24980;48.874;2.332;2022-10-31T05:37:23;101279.72;;;22.82;50.43
39275;BME280;24980;48.874;2.332;2022-10-31T05:39:54;101284.28;;;22.82;50.43
39275;BME280;24980;48.874;2.332;2022-10-31T05:42:24;101284.03;;;22.82;50.44
39275;BME280;24980;48.874;2.332;2022-10-31T05:44:57;101291.38;;;22.82;50.44
39275;BME280;24980;48.874;2.332;2022-10-31T05:47:26;101292.98;;;22.82;50.44
39275;BME280;24980;48.874;2.332;2022-10-31T05:49:55;101295.09;;;22.81;50.44
39275;BME280;24980;48.874;2.332;2022-10-31T05:52:26;101289.19;;;22.81;50.44
39275;BME280;24980;48.874;2.332;2022-10-31T05:55:01;101286.56;;;22.81;50.44
39275;BME280;24980;48.874;2.332;2022-10-31T05:57:28;101285.12;;;22.80;50.44
39275;BME280;24980;48.874;2.332;2022-10-31T05:59:57;101279.30;;;22.80;50.45
39275;BME280;24980;48.874;2.332;2022-10-31T06:02:27;101275.61;;;22.79;50.45
39275;BME280;24980;48.874;2.332;2022-10-31T06:04:57;101273.38;;;22.80;50.45
39275;BME280;24980;48.874;2.332;2022-10-31T06:07:31;101268.93;;;22.79;50.46
39275;BME280;24980;48.874;2.332;2022-10-31T06:09:57;101266.56;;;22.79;50.46
39275;BME280;24980;48.874;2.332;2022-10-31T06:12:27;101272.05;;;22.78;50.46
39275;BME280;24980;48.874;2.332;2022-10-31T06:14:57;101264.53;;;22.78;50.47
39275;BME280;24980;48.874;2.332;2022-10-31T06:17:27;101265.38;;;22.79;50.47
39275;BME280;24980;48.874;2.332;2022-10-31T06:20:00;101255.58;;;22.78;50.47
39275;BME280;24980;48.874;2.332;2022-10-31T06:22:27;101249.58;;;22.77;50.47
39275;BME280;24980;48.874;2.332;2022-10-31T06:24:58;101248.73;;;22.78;50.47
39275;BME280;24980;48.874;2.332;2022-10-31T06:27:28;101247.97;;;22.78;50.48
39275;BME280;24980;48.874;2.332;2022-10-31T06:29:58;101250.84;;;22.77;50.48
39275;BME280;24980;48.874;2.332;2022-10-31T06:32:28;101251.02;;;22.77;50.49
39275;BME280;24980;48.874;2.332;2022-10-31T06:34:58;101250.84;;;22.77;50.48
39275;BME280;24980;48.874;2.332;2022-10-31T06:37:28;101252.66;;;22.76;50.48
39275;BME280;24980;48.874;2.332;2022-10-31T06:39:58;101251.77;;;22.76;50.49
39275;BME280;24980;48.874;2.332;2022-10-31T06:42:28;101250.12;;;22.75;50.48
39275;BME280;24980;48.874;2.332;2022-10-31T06:44:58;101247.16;;;22.75;50.49
39275;BME280;24980;48.874;2.332;2022-10-31T06:47:28;101248.77;;;22.74;50.49
39275;BME280;24980;48.874;2.332;2022-10-31T06:49:58;101245.05;;;22.74;50.49
39275;BME280;24980;48.874;2.332;2022-10-31T06:52:28;101243.86;;;22.74;50.49
39275;BME280;24980;48.874;2.332;2022-10-31T06:54:58;101242.52;;;22.74;50.47
39275;BME280;24980;48.874;2.332;2022-10-31T06:57:28;101244.62;;;22.74;50.47
39275;BME280;24980;48.874;2.332;2022-10-31T06:59:58;101245.08;;;22.73;50.49
39275;BME280;24980;48.874;2.332;2022-10-31T07:02:28;101245.08;;;22.73;50.49
39275;BME280;24980;48.874;2.332;2022-10-31T07:04:59;101238.74;;;22.73;50.47
39275;BME280;24980;48.874;2.332;2022-10-31T07:07:29;101238.66;;;22.72;50.47
39275;BME280;24980;48.874;2.332;2022-10-31T07:09:59;101237.22;;;22.72;50.47
39275;BME280;24980;48.874;2.332;2022-10-31T07:12:29;101238.16;;;22.71;50.47
39275;BME280;24980;48.874;2.332;2022-10-31T07:14:59;101239.00;;;22.71;50.46
39275;BME280;24980;48.874;2.332;2022-10-31T07:17:32;101238.48;;;22.71;50.47
39275;BME280;24980;48.874;2.332;2022-10-31T07:20:00;101240.44;;;22.71;50.47
39275;BME280;24980;48.874;2.332;2022-10-31T07:22:35;101238.23;;;22.71;50.46
39275;BME280;24980;48.874;2.332;2022-10-31T07:25:02;101235.36;;;22.70;50.47
39275;BME280;24980;48.874;2.332;2022-10-31T07:27:40;101233.67;;;22.70;50.46
39275;BME280;24980;48.874;2.332;2022-10-31T07:30:04;101229.65;;;22.69;50.46
39275;BME280;24980;48.874;2.332;2022-10-31T07:32:45;101223.98;;;22.69;50.47
39275;BME280;24980;48.874;2.332;2022-10-31T07:35:04;101232.10;;;22.70;50.47
39275;BME280;24980;48.874;2.332;2022-10-31T07:37:34;101227.03;;;22.69;50.47
39275;BME280;24980;48.874;2.332;2022-10-31T07:40:05;101228.05;;;22.69;50.48
39275;BME280;24980;48.874;2.332;2022-10-31T07:42:38;101228.30;;;22.69;50.48
39275;BME280;24980;48.874;2.332;2022-10-31T07:45:06;101231.93;;;22.68;50.49
39275;BME280;24980;48.874;2.332;2022-10-31T07:47:42;101231.84;;;22.68;50.50
39275;BME280;24980;48.874;2.332;2022-10-31T07:50:08;101232.10;;;22.68;50.50
39275;BME280;24980;48.874;2.332;2022-10-31T07:52:39;101228.80;;;22.67;50.51
39275;BME280;24980;48.874;2.332;2022-10-31T07:55:08;101232.10;;;22.67;50.51
39275;BME280;24980;48.874;2.332;2022-10-31T07:57:38;101222.30;;;22.67;50.51
39275;BME280;24980;48.874;2.332;2022-10-31T08:00:09;101226.47;;;22.67;50.52
39275;BME280;24980;48.874;2.332;2022-10-31T08:02:39;101222.25;;;22.67;50.53
39275;BME280;24980;48.874;2.332;2022-10-31T08:05:09;101221.58;;;22.67;50.53
39275;BME280;24980;48.874;2.332;2022-10-31T08:07:39;101223.27;;;22.67;50.53
39275;BME280;24980;48.874;2.332;2022-10-31T08:10:09;101222.22;;;22.65;50.53
39275;BME280;24980;48.874;2.332;2022-10-31T08:12:39;101222.25;;;22.66;50.54
39275;BME280;24980;48.874;2.332;2022-10-31T08:15:09;101217.44;;;22.66;50.54
39275;BME280;24980;48.874;2.332;2022-10-31T08:17:39;101222.08;;;22.66;50.54
39275;BME280;24980;48.874;2.332;2022-10-31T08:20:09;101219.43;;;22.65;50.54
39275;BME280;24980;48.874;2.332;2022-10-31T08:22:39;101217.15;;;22.65;50.55
39275;BME280;24980;48.874;2.332;2022-10-31T08:25:10;101214.02;;;22.65;50.55
39275;BME280;24980;48.874;2.332;2022-10-31T08:27:40;101209.97;;;22.65;50.57
39275;BME280;24980;48.874;2.332;2022-10-31T08:30:10;101204.64;;;22.65;50.57
39275;BME280;24980;48.874;2.332;2022-10-31T08:32:40;101194.42;;;22.65;50.58
39275;BME280;24980;48.874;2.332;2022-10-31T08:35:11;101195.09;;;22.64;50.58
39275;BME280;24980;48.874;2.332;2022-10-31T08:37:42;101190.62;;;22.64;50.58
39275;BME280;24980;48.874;2.332;2022-10-31T08:40:26;101186.81;;;22.65;50.59
39275;BME280;24980;48.874;2.332;2022-10-31T08:42:43;101184.28;;;22.65;50.58
39275;BME280;24980;48.874;2.332;2022-10-31T08:45:13;101178.37;;;22.65;50.60
39275;BME280;24980;48.874;2.332;2022-10-31T08:47:43;101172.95;;;22.65;50.60
39275;BME280;24980;48.874;2.332;2022-10-31T08:50:14;101172.45;;;22.65;50.61
39275;BME280;24980;48.874;2.332;2022-10-31T08:52:44;101167.30;;;22.64;50.61
39275;BME280;24980;48.874;2.332;2022-10-31T08:55:14;101163.84;;;22.64;50.62
39275;BME280;24980;48.874;2.332;2022-10-31T08:57:44;101152.01;;;22.64;50.61
39275;BME280;24980;48.874;2.332;2022-10-31T09:00:14;101146.60;;;22.64;50.61
39275;BME280;24980;48.874;2.332;2022-10-31T09:02:44;101136.12;;;22.64;50.61
39275;BME280;24980;48.874;2.332;2022-10-31T09:05:14;101132.49;;;22.64;50.62
39275;BME280;24980;48.874;2.332;2022-10-31T09:07:47;101132.16;;;22.64;50.62
39275;BME280;24980;48.874;2.332;2022-10-31T09:10:15;101128.52;;;22.64;50.64
39275;BME280;24980;48.874;2.332;2022-10-31T09:12:48;101118.08;;;22.63;50.67
39275;BME280;24980;48.874;2.332;2022-10-31T09:15:19;101113.06;;;22.64;50.70
39275;BME280;24980;48.874;2.332;2022-10-31T09:17:47;101106.98;;;22.64;50.70
39275;BME280;24980;48.874;2.332;2022-10-31T09:20:17;101100.92;;;22.63;50.71
39275;BME280;24980;48.874;2.332;2022-10-31T09:22:48;101100.34;;;22.62;50.72
39275;BME280;24980;48.874;2.332;2022-10-31T09:25:17;101095.44;;;22.62;50.72
39275;BME280;24980;48.874;2.332;2022-10-31T09:27:48;101097.72;;;22.63;50.72
39275;BME280;24980;48.874;2.332;2022-10-31T09:30:18;101099.58;;;22.63;50.72
39275;BME280;24980;48.874;2.332;2022-10-31T09:33:00;101093.97;;;22.64;50.71
39275;BME280;24980;48.874;2.332;2022-10-31T09:35:18;101087.03;;;22.65;50.72
39275;BME280;24980;48.874;2.332;2022-10-31T09:37:54;101091.45;;;22.66;50.76
39275;BME280;24980;48.874;2.332;2022-10-31T09:40:19;101080.81;;;22.66;50.78
39275;BME280;24980;48.874;2.332;2022-10-31T09:45:33;101076.55;;;22.68;50.84
39275;BME280;24980;48.874;2.332;2022-10-31T09:48:02;101067.25;;;22.70;50.85
39275;BME280;24980;48.874;2.332;2022-10-31T09:50:39;101060.45;;;22.72;50.88
39275;BME280;24980;48.874;2.332;2022-10-31T09:52:58;101056.44;;;22.74;50.89
39275;BME280;24980;48.874;2.332;2022-10-31T09:55:30;101058.60;;;22.76;50.93
39275;BME280;24980;48.874;2.332;2022-10-31T09:57:53;101055.12;;;22.78;50.95
39275;BME280;24980;48.874;2.332;2022-10-31T10:00:23;101054.50;;;22.80;50.97
39275;BME280;24980;48.874;2.332;2022-10-31T10:02:57;101058.80;;;22.82;51.00
39275;BME280;24980;48.874;2.332;2022-10-31T10:05:49;101060.79;;;22.85;51.03
39275;BME280;24980;48.874;2.332;2022-10-31T10:08:00;101057.03;;;22.88;51.05
39275;BME280;24980;48.874;2.332;2022-10-31T10:10:51;101045.83;;;22.89;51.05
39275;BME280;24980;48.874;2.332;2022-10-31T10:21:02;101009.66;;;22.89;51.06
39275;BME280;24980;48.874;2.332;2022-10-31T10:23:20;101000.70;;;22.90;51.05
39275;BME280;24980;48.874;2.332;2022-10-31T10:25:33;101000.02;;;22.90;51.05
39275;BME280;24980;48.874;2.332;2022-10-31T10:28:16;101001.88;;;22.90;51.05
39275;BME280;24980;48.874;2.332;2022-10-31T10:30:40;100998.67;;;22.89;51.05
39275;BME280;24980;48.874;2.332;2022-10-31T10:33:04;100988.06;;;22.88;51.04
39275;BME280;24980;48.874;2.332;2022-10-31T10:35:33;100983.34;;;22.87;51.03
39275;BME280;24980;48.874;2.332;2022-10-31T10:40:40;100979.11;;;22.86;51.00
39275;BME280;24980;48.874;2.332;2022-10-31T10:43:18;100974.12;;;22.88;51.00
39275;BME280;24980;48.874;2.332;2022-10-31T10:45:32;100970.83;;;22.87;51.00
39275;BME280;24980;48.874;2.332;2022-10-31T10:48:16;100962.88;;;22.87;50.98
39275;BME280;24980;48.874;2.332;2022-10-31T10:50:38;100958.14;;;22.88;51.00
39275;BME280;24980;48.874;2.332;2022-10-31T10:58:06;100927.59;;;22.90;51.00
39275;BME280;24980;48.874;2.332;2022-10-31T11:00:45;100904.76;;;22.92;51.01
39275;BME280;24980;48.874;2.332;2022-10-31T11:03:04;100893.31;;;22.93;51.04
39275;BME280;24980;48.874;2.332;2022-10-31T11:05:44;100888.15;;;22.94;51.04
39275;BME280;24980;48.874;2.332;2022-10-31T11:08:09;100887.30;;;22.94;51.05
39275;BME280;24980;48.874;2.332;2022-10-31T11:10:44;100885.44;;;22.94;51.06
39275;BME280;24980;48.874;2.332;2022-10-31T11:13:20;100872.77;;;22.94;51.06
39275;BME280;24980;48.874;2.332;2022-10-31T11:16:02;100868.29;;;22.93;51.07
39275;BME280;24980;48.874;2.332;2022-10-31T11:18:17;100868.45;;;22.94;51.08
39275;BME280;24980;48.874;2.332;2022-10-31T11:20:38;100866.00;;;22.94;51.09
39275;BME280;24980;48.874;2.332;2022-10-31T11:23:19;100878.04;;;22.96;51.13
39275;BME280;24980;48.874;2.332;2022-10-31T11:25:57;100886.56;;;22.98;51.16
39275;BME280;24980;48.874;2.332;2022-10-31T11:28:12;100882.72;;;22.99;51.19
39275;BME280;24980;48.874;2.332;2022-10-31T11:30:52;100874.42;;;23.01;51.20
39275;BME280;24980;48.874;2.332;2022-10-31T11:33:24;100876.39;;;23.04;51.22
39275;BME280;24980;48.874;2.332;2022-10-31T11:35:40;100874.56;;;23.07;51.22
39275;BME280;24980;48.874;2.332;2022-10-31T11:38:17;100866.91;;;23.10;51.22
39275;BME280;24980;48.874;2.332;2022-10-31T11:40:59;100859.74;;;23.14;51.21
39275;BME280;24980;48.874;2.332;2022-10-31T11:43:17;100854.78;;;23.16;51.21
39275;BME280;24980;48.874;2.332;2022-10-31T11:45:42;100849.73;;;23.20;51.19
39275;BME280;24980;48.874;2.332;2022-10-31T11:48:16;100846.11;;;23.24;51.17
39275;BME280;24980;48.874;2.332;2022-10-31T11:50:48;100845.55;;;23.26;51.16
39275;BME280;24980;48.874;2.332;2022-10-31T11:53:17;100844.73;;;23.30;51.15
39275;BME280;24980;48.874;2.332;2022-10-31T11:55:48;100839.08;;;23.33;51.14
39275;BME280;24980;48.874;2.332;2022-10-31T11:58:28;100825.91;;;23.37;51.11
39275;BME280;24980;48.874;2.332;2022-10-31T12:00:52;100822.30;;;23.39;51.10
39275;BME280;24980;48.874;2.332;2022-10-31T12:03:54;100816.27;;;23.42;51.08
39275;BME280;24980;48.874;2.332;2022-10-31T12:05:48;100815.20;;;23.44;51.06
39275;BME280;24980;48.874;2.332;2022-10-31T12:08:15;100817.67;;;23.47;51.05
39275;BME280;24980;48.874;2.332;2022-10-31T12:13:38;100813.19;;;23.48;51.05
39275;BME280;24980;48.874;2.332;2022-10-31T12:15:53;100808.69;;;23.50;51.04
39275;BME280;24980;48.874;2.332;2022-10-31T12:18:39;100805.08;;;23.51;51.03
39275;BME280;24980;48.874;2.332;2022-10-31T12:21:13;100805.06;;;23.53;51.04
39275;BME280;24980;48.874;2.332;2022-10-31T12:23:52;100797.74;;;23.54;51.04
39275;BME280;24980;48.874;2.332;2022-10-31T12:25:54;100794.02;;;23.55;51.03
39275;BME280;24980;48.874;2.332;2022-10-31T12:31:03;100774.84;;;23.57;51.05
39275;BME280;24980;48.874;2.332;2022-10-31T12:33:46;100765.27;;;23.57;51.05
39275;BME280;24980;48.874;2.332;2022-10-31T12:41:17;100749.30;;;23.60;51.05
39275;BME280;24980;48.874;2.332;2022-10-31T12:44:01;100741.25;;;23.62;51.04
39275;BME280;24980;48.874;2.332;2022-10-31T12:46:00;100741.87;;;23.64;51.03
39275;BME280;24980;48.874;2.332;2022-10-31T12:48:52;100741.86;;;23.65;51.00
39275;BME280;24980;48.874;2.332;2022-10-31T12:51:11;100744.97;;;23.66;51.00
39275;BME280;24980;48.874;2.332;2022-10-31T12:58:31;100734.60;;;23.67;50.97
39275;BME280;24980;48.874;2.332;2022-10-31T13:01:09;100735.62;;;23.67;50.96
39275;BME280;24980;48.874;2.332;2022-10-31T13:03:33;100733.17;;;23.67;50.95
39275;BME280;24980;48.874;2.332;2022-10-31T13:06:03;100725.52;;;23.66;50.95
39275;BME280;24980;48.874;2.332;2022-10-31T13:13:59;100719.23;;;23.63;50.95
39275;BME280;24980;48.874;2.332;2022-10-31T13:16:14;100714.93;;;23.62;50.95
39275;BME280;24980;48.874;2.332;2022-10-31T13:18:37;100706.47;;;23.62;50.95
39275;BME280;24980;48.874;2.332;2022-10-31T13:21:05;100695.98;;;23.61;50.94
39275;BME280;24980;48.874;2.332;2022-10-31T13:23:33;100690.62;;;23.59;50.93
39275;BME280;24980;48.874;2.332;2022-10-31T13:26:09;100690.80;;;23.59;50.94
39275;BME280;24980;48.874;2.332;2022-10-31T13:28:46;100692.84;;;23.58;50.94
39275;BME280;24980;48.874;2.332;2022-10-31T13:31:02;100687.48;;;23.56;50.94
39275;BME280;24980;48.874;2.332;2022-10-31T13:33:42;100678.17;;;23.56;50.94
39275;BME280;24980;48.874;2.332;2022-10-31T13:36:11;100679.28;;;23.56;50.94
39275;BME280;24980;48.874;2.332;2022-10-31T13:38:38;100675.56;;;23.56;50.93
39275;BME280;24980;48.874;2.332;2022-10-31T13:41:17;100676.67;;;23.54;50.94
39275;BME280;24980;48.874;2.332;2022-10-31T13:46:26;100670.75;;;23.54;51.00
39275;BME280;24980;48.874;2.332;2022-10-31T13:48:41;100670.92;;;23.55;51.01
39275;BME280;24980;48.874;2.332;2022-10-31T13:51:11;100662.80;;;23.55;51.03
39275;BME280;24980;48.874;2.332;2022-10-31T13:56:16;100655.61;;;23.55;50.99
39275;BME280;24980;48.874;2.332;2022-10-31T13:58:38;100650.61;;;23.55;50.98
39275;BME280;24980;48.874;2.332;2022-10-31T14:01:16;100638.86;;;23.55;50.96
39275;BME280;24980;48.874;2.332;2022-10-31T14:03:42;100635.30;;;23.55;50.95
39275;BME280;24980;48.874;2.332;2022-10-31T14:06:10;100629.30;;;23.54;50.94
39275;BME280;24980;48.874;2.332;2022-10-31T14:08:50;100625.41;;;23.54;50.91